Terminal Aerodrome Forecast
Issued by NWS

Home | Current Version | Previous Version | Text Only | Print | Product List | Glossary On
Versions: 1 2 3 4 5 6 7 8 9 10 11 12 13 14 15
000
FTUS45 KRIW 240532
TAFPNA
TAF
KPNA 240532Z 2406/2506 30008KT P6SM VCSH SCT025 BKN040
     FM240900 30006KT 6SM -SN SCT015 BKN025
     FM241800 05012G22KT P6SM -SN OVC015
     FM242300 08008KT P6SM -SN SCT015 OVC025
     FM250300 VRB03KT P6SM -SN SCT010 OVC020
      AMD LTD TO CLD VIS AND WIND=

USA.gov is the U.S. government's official web portal to all federal, state and local government web resources and services.